Time;durP1;ratioP1;P1;durP2;ratioP2;P2;SDS_P1;SDS_P2;PMS_P1;PMS_P2;Temp;Humidity;BMP_temperature;BMP_pressure;BME280_temperature;BME280_humidity;BME280_pressure;Samples;Min_cycle;Max_cycle;Signal;HPM_P1;HPM_P2
2022/07/06 00:00:14;;;;;;;;;;;;;;;;;;2073342;28;19913;-83
2022/07/06 00:01:15;;;;;;;;;;;;;;;;;;2078024;28;19914;-83
2022/07/06 00:02:15;;;;;;;;;;;;;;;;;;2076509;28;19913;-83
2022/07/06 00:03:15;;;;;;;;;;;;;;;;;;2068385;28;19933;-83
2022/07/06 00:04:16;;;;;;;;;;;;;;;;;;2067544;28;19917;-82
2022/07/06 00:05:16;;;;;;;;;;;;;;;;;;2066995;28;20410;-82
2022/07/06 00:06:17;;;;;;;;;;;;;;;;;;2066910;28;19984;-82
2022/07/06 00:07:17;;;;;;;;;;;;;;;;;;2066790;28;19914;-83
2022/07/06 00:08:17;;;;;;;;;;;;;;;;;;2066356;28;19918;-83
2022/07/06 00:09:18;;;;;;;;;;;;;;;;;;2066543;28;20286;-83
2022/07/06 00:10:18;;;;;;;;;;;;;;;;;;2066555;28;19989;-82
2022/07/06 00:11:18;;;;;;;;;;;;;;;;;;2067053;28;20013;-83
2022/07/06 00:12:19;;;;;;;;;;;;;;;;;;2066289;28;20020;-83
2022/07/06 00:13:19;;;;;;;;;;;;;;;;;;2066386;28;20005;-82
2022/07/06 00:14:19;;;;;;;;;;;;;;;;;;2066476;28;20514;-81
2022/07/06 00:15:20;;;;;;;;;;;;;;;;;;2066330;28;20000;-84
2022/07/06 00:16:22;;;;;;;;;;;;;;;;;;2065025;28;19918;-85
2022/07/06 00:17:23;;;;;;;;;;;;;;;;;;2066128;28;20382;-84
2022/07/06 00:18:23;;;;;;;;;;;;;;;;;;2066128;28;19953;-82
2022/07/06 00:19:30;;;;;;;;;;;;;;;;;;2066427;28;19913;-82
2022/07/06 00:20:31;;;;;;;;;;;;;;;;;;2066894;28;20275;-83
2022/07/06 00:21:31;;;;;;;;;;;;;;;;;;2066777;28;19997;-84
2022/07/06 00:22:31;;;;;;;;;;;;;;;;;;2066522;28;19925;-84
2022/07/06 00:23:32;;;;;;;;;;;;;;;;;;2074185;28;19913;-83
2022/07/06 00:24:32;;;;;;;;;;;;;;;;;;2073971;28;20390;-82
2022/07/06 00:25:32;;;;;;;;;;;;;;;;;;2066656;28;19914;-84
2022/07/06 00:26:32;;;;;;;;;;;;;;;;;;2066606;28;20347;-84
2022/07/06 00:27:33;;;;;;;;;;;;;;;;;;2066532;28;20370;-82
2022/07/06 00:28:33;;;;;;;;;;;;;;;;;;2066590;28;19983;-83
2022/07/06 00:29:35;;;;;;;;;;;;;;;;;;2066419;28;20178;-84
2022/07/06 00:30:36;;;;;;;;;;;;;;;;;;2066807;28;19941;-84
2022/07/06 00:31:36;;;;;;;;;;;;;;;;;;2066519;28;20425;-84
2022/07/06 00:32:36;;;;;;;;;;;;;;;;;;2066486;28;19921;-82
2022/07/06 00:33:36;;;;;;;;;;;;;;;;;;2066093;28;20358;-82
2022/07/06 00:34:39;;;;;;;;;;;;;;;;;;2066104;28;20376;-84
2022/07/06 00:35:39;;;;;;;;;;;;;;;;;;2066626;28;20350;-84
2022/07/06 00:36:39;;;;;;;;;;;;;;;;;;2066633;28;19913;-83
2022/07/06 00:37:40;;;;;;;;;;;;;;;;;;2065927;28;19914;-84
2022/07/06 00:38:40;;;;;;;;;;;;;;;;;;2065935;28;20357;-83
2022/07/06 00:39:42;;;;;;;;;;;;;;;;;;2066527;28;19914;-83
2022/07/06 00:40:43;;;;;;;;;;;;;;;;;;2066746;28;20093;-82
2022/07/06 00:41:43;;;;;;;;;;;;;;;;;;2066400;28;20362;-84
2022/07/06 00:42:45;;;;;;;;;;;;;;;;;;2066448;28;19921;-84
2022/07/06 00:43:50;;;;;;;;;;;;;;;;;;2066145;28;19917;-83
2022/07/06 00:44:50;;;;;;;;;;;;;;;;;;2066590;28;19914;-83
2022/07/06 00:45:52;;;;;;;;;;;;;;;;;;2066647;28;19914;-82
2022/07/06 00:46:53;;;;;;;;;;;;;;;;;;2066435;28;19995;-83
2022/07/06 00:47:53;;;;;;;;;;;;;;;;;;2066393;28;20012;-83
2022/07/06 00:48:53;;;;;;;;;;;;;;;;;;2066032;28;20370;-83
2022/07/06 00:51:13;;;;;;;;;;;;;;;;;;2066147;28;19913;-83
2022/07/06 00:52:14;;;;;;;;;;;;;;;;;;2066202;28;19953;-83
2022/07/06 00:53:14;;;;;;;;;;;;;;;;;;2066293;28;19914;-83
2022/07/06 00:54:14;;;;;;;;;;;;;;;;;;2066156;28;19925;-83
2022/07/06 00:55:15;;;;;;;;;;;;;;;;;;2066453;28;20023;-82
2022/07/06 00:56:16;;;;;;;;;;;;;;;;;;2066676;28;20001;-82
2022/07/06 00:57:17;;;;;;;;;;;;;;;;;;2066440;28;19952;-82
2022/07/06 00:58:17;;;;;;;;;;;;;;;;;;2066436;28;19933;-83
2022/07/06 00:59:17;;;;;;;;;;;;;;;;;;2066535;28;19925;-84
2022/07/06 01:00:19;;;;;;;;;;;;;;;;;;2066449;28;19914;-84
2022/07/06 01:01:19;;;;;;;;;;;;;;;;;;2066570;28;19925;-83
2022/07/06 01:02:22;;;;;;;;;;;;;;;;;;2066228;28;19945;-83
2022/07/06 01:03:22;;;;;;;;;;;;;;;;;;2066092;28;19914;-83
2022/07/06 01:04:22;;;;;;;;;;;;;;;;;;2066408;28;19953;-83
2022/07/06 01:05:23;;;;;;;;;;;;;;;;;;2073878;28;19960;-83
2022/07/06 01:06:23;;;;;;;;;;;;;;;;;;2065585;28;19917;-83
2022/07/06 01:07:24;;;;;;;;;;;;;;;;;;2065524;28;19980;-83
2022/07/06 01:08:27;;;;;;;;;;;;;;;;;;2065523;28;19917;-82
2022/07/06 01:09:29;;;;;;;;;;;;;;;;;;2066352;28;19980;-83
2022/07/06 01:10:30;;;;;;;;;;;;;;;;;;2073939;28;19929;-83
2022/07/06 01:11:30;;;;;;;;;;;;;;;;;;2074025;28;19983;-83
2022/07/06 01:12:31;;;;;;;;;;;;;;;;;;2066303;28;19956;-83
2022/07/06 01:13:32;;;;;;;;;;;;;;;;;;2066254;28;19914;-83
2022/07/06 01:14:32;;;;;;;;;;;;;;;;;;2066197;28;19914;-83
2022/07/06 01:15:33;;;;;;;;;;;;;;;;;;2066463;28;19925;-84
2022/07/06 01:16:33;;;;;;;;;;;;;;;;;;2073750;28;20286;-83
2022/07/06 01:17:33;;;;;;;;;;;;;;;;;;2065848;28;19913;-82
2022/07/06 01:18:34;;;;;;;;;;;;;;;;;;2066149;28;19976;-83
2022/07/06 01:19:34;;;;;;;;;;;;;;;;;;2066416;28;19913;-84
2022/07/06 01:20:35;;;;;;;;;;;;;;;;;;2066264;28;19990;-84
2022/07/06 01:21:37;;;;;;;;;;;;;;;;;;2073735;28;19913;-81
2022/07/06 01:22:37;;;;;;;;;;;;;;;;;;2073464;28;19914;-85
2022/07/06 01:23:45;;;;;;;;;;;;;;;;;;2073687;28;20409;-84
2022/07/06 01:24:45;;;;;;;;;;;;;;;;;;2065577;28;19921;-84
2022/07/06 01:25:45;;;;;;;;;;;;;;;;;;2065550;28;20294;-83
2022/07/06 01:26:46;;;;;;;;;;;;;;;;;;2065961;28;19918;-84
2022/07/06 01:27:47;;;;;;;;;;;;;;;;;;2066187;28;20263;-85
2022/07/06 01:28:49;;;;;;;;;;;;;;;;;;2065837;28;19961;-84
2022/07/06 01:29:49;;;;;;;;;;;;;;;;;;2065773;28;19914;-85
2022/07/06 01:30:49;;;;;;;;;;;;;;;;;;2065711;28;20013;-81
2022/07/06 01:31:50;;;;;;;;;;;;;;;;;;2065435;28;20514;-84
2022/07/06 01:32:51;;;;;;;;;;;;;;;;;;2065603;28;19918;-84
2022/07/06 01:33:52;;;;;;;;;;;;;;;;;;2065791;28;20359;-85
2022/07/06 01:34:53;;;;;;;;;;;;;;;;;;2065742;28;19953;-84
2022/07/06 01:35:53;;;;;;;;;;;;;;;;;;2065711;28;19914;-83
2022/07/06 01:36:54;;;;;;;;;;;;;;;;;;2064834;28;19948;-84
2022/07/06 01:37:54;;;;;;;;;;;;;;;;;;2065370;28;20314;-84
2022/07/06 01:38:58;;;;;;;;;;;;;;;;;;2073641;28;20273;-84
2022/07/06 01:40:02;;;;;;;;;;;;;;;;;;2073388;28;19914;-83
2022/07/06 01:41:05;;;;;;;;;;;;;;;;;;2065563;28;19913;-83
2022/07/06 01:42:05;;;;;;;;;;;;;;;;;;2065456;28;19925;-84
2022/07/06 01:43:05;;;;;;;;;;;;;;;;;;2065477;28;19961;-83
2022/07/06 01:44:06;;;;;;;;;;;;;;;;;;2065951;28;19918;-83
2022/07/06 01:45:09;;;;;;;;;;;;;;;;;;2073633;28;20390;-84
2022/07/06 01:46:09;;;;;;;;;;;;;;;;;;2065353;28;19920;-84
2022/07/06 01:47:12;;;;;;;;;;;;;;;;;;2065542;28;19913;-84
2022/07/06 01:48:12;;;;;;;;;;;;;;;;;;2065674;28;19921;-83
2022/07/06 01:49:15;;;;;;;;;;;;;;;;;;2073888;28;19914;-83
2022/07/06 01:50:15;;;;;;;;;;;;;;;;;;2066106;28;19983;-83
2022/07/06 01:51:15;;;;;;;;;;;;;;;;;;2073688;28;20415;-83
2022/07/06 01:52:16;;;;;;;;;;;;;;;;;;2073660;28;19978;-83
2022/07/06 01:53:16;;;;;;;;;;;;;;;;;;2065957;28;20405;-83
2022/07/06 01:54:16;;;;;;;;;;;;;;;;;;2073436;28;19965;-83
2022/07/06 01:55:16;;;;;;;;;;;;;;;;;;2065139;28;20335;-83
2022/07/06 01:56:18;;;;;;;;;;;;;;;;;;2065142;28;19920;-83
2022/07/06 01:57:19;;;;;;;;;;;;;;;;;;2065709;28;19924;-84
2022/07/06 01:58:19;;;;;;;;;;;;;;;;;;2065573;28;20009;-84
2022/07/06 01:59:19;;;;;;;;;;;;;;;;;;2065867;28;20004;-84
2022/07/06 02:00:23;;;;;;;;;;;;;;;;;;2073371;28;19989;-83
2022/07/06 02:01:23;;;;;;;;;;;;;;;;;;2073347;28;19925;-83
2022/07/06 02:02:23;;;;;;;;;;;;;;;;;;2065885;28;19917;-84
2022/07/06 02:03:23;;;;;;;;;;;;;;;;;;2066048;28;19933;-83
2022/07/06 02:04:24;;;;;;;;;;;;;;;;;;2066184;28;19968;-82
2022/07/06 02:05:24;;;;;;;;;;;;;;;;;;2065739;28;19920;-84
2022/07/06 02:06:24;;;;;;;;;;;;;;;;;;2065504;28;19933;-84
2022/07/06 02:07:25;;;;;;;;;;;;;;;;;;2065354;28;19917;-84
2022/07/06 02:08:27;;;;;;;;;;;;;;;;;;2065416;28;19913;-83
2022/07/06 02:09:30;;;;;;;;;;;;;;;;;;2065861;28;20007;-85
2022/07/06 02:10:30;;;;;;;;;;;;;;;;;;2066296;28;19968;-84
2022/07/06 02:11:33;;;;;;;;;;;;;;;;;;2066327;28;19914;-83
2022/07/06 02:12:33;;;;;;;;;;;;;;;;;;2066393;28;19922;-84
2022/07/06 02:13:34;;;;;;;;;;;;;;;;;;2065859;28;19924;-84
2022/07/06 02:14:34;;;;;;;;;;;;;;;;;;2065790;28;19918;-84
2022/07/06 02:15:34;;;;;;;;;;;;;;;;;;2065791;28;20000;-83
2022/07/06 02:16:37;;;;;;;;;;;;;;;;;;2065541;28;20083;-84
2022/07/06 02:17:37;;;;;;;;;;;;;;;;;;2073182;28;20367;-85
2022/07/06 02:18:37;;;;;;;;;;;;;;;;;;2073328;28;19921;-84
2022/07/06 02:19:37;;;;;;;;;;;;;;;;;;2065786;28;19913;-85
2022/07/06 02:20:38;;;;;;;;;;;;;;;;;;2066041;28;19914;-84
2022/07/06 02:21:38;;;;;;;;;;;;;;;;;;2073468;28;19914;-84
2022/07/06 02:22:38;;;;;;;;;;;;;;;;;;2065335;28;20318;-84
2022/07/06 02:23:38;;;;;;;;;;;;;;;;;;2065534;28;19914;-83
2022/07/06 02:24:39;;;;;;;;;;;;;;;;;;2065101;28;19965;-84
2022/07/06 02:25:39;;;;;;;;;;;;;;;;;;2065261;28;19964;-84
2022/07/06 02:26:39;;;;;;;;;;;;;;;;;;2065132;28;19992;-84
2022/07/06 02:27:39;;;;;;;;;;;;;;;;;;2065396;28;19914;-83
2022/07/06 02:28:42;;;;;;;;;;;;;;;;;;2065196;28;19917;-83
2022/07/06 02:29:43;;;;;;;;;;;;;;;;;;2065352;28;19924;-83
2022/07/06 02:30:43;;;;;;;;;;;;;;;;;;2065259;28;20340;-83
2022/07/06 02:31:43;;;;;;;;;;;;;;;;;;2065260;28;20008;-84
2022/07/06 02:32:44;;;;;;;;;;;;;;;;;;2065530;28;20008;-83
2022/07/06 02:33:46;;;;;;;;;;;;;;;;;;2065598;28;20442;-83
2022/07/06 02:34:46;;;;;;;;;;;;;;;;;;2065941;28;19918;-83
2022/07/06 02:35:47;;;;;;;;;;;;;;;;;;2073435;28;19913;-83
2022/07/06 02:36:47;;;;;;;;;;;;;;;;;;2065256;28;20000;-84
2022/07/06 02:37:47;;;;;;;;;;;;;;;;;;2065370;28;19924;-84
2022/07/06 02:38:51;;;;;;;;;;;;;;;;;;2065230;28;19914;-83
2022/07/06 02:39:51;;;;;;;;;;;;;;;;;;2065749;28;19980;-84
2022/07/06 02:40:51;;;;;;;;;;;;;;;;;;2065774;28;19925;-84
2022/07/06 02:41:51;;;;;;;;;;;;;;;;;;2065821;28;19914;-83
2022/07/06 02:42:51;;;;;;;;;;;;;;;;;;2065994;28;19914;-83
2022/07/06 02:43:52;;;;;;;;;;;;;;;;;;2065792;28;20390;-83
2022/07/06 02:44:53;;;;;;;;;;;;;;;;;;2065789;28;19965;-83
2022/07/06 02:45:53;;;;;;;;;;;;;;;;;;2065742;28;19968;-84
2022/07/06 02:46:53;;;;;;;;;;;;;;;;;;2065506;28;20295;-83
2022/07/06 02:47:55;;;;;;;;;;;;;;;;;;2065908;28;19913;-83
2022/07/06 02:48:58;;;;;;;;;;;;;;;;;;2065638;28;19940;-83
2022/07/06 02:49:58;;;;;;;;;;;;;;;;;;2065497;28;19920;-83
2022/07/06 02:50:58;;;;;;;;;;;;;;;;;;2065076;28;19921;-83
2022/07/06 02:52:06;;;;;;;;;;;;;;;;;;2065109;28;19921;-84
2022/07/06 02:53:06;;;;;;;;;;;;;;;;;;2065628;28;19918;-83
2022/07/06 02:54:07;;;;;;;;;;;;;;;;;;2073193;28;19928;-83
2022/07/06 02:55:07;;;;;;;;;;;;;;;;;;2073159;28;20428;-82
2022/07/06 02:56:07;;;;;;;;;;;;;;;;;;2065564;28;19918;-82
2022/07/06 02:57:08;;;;;;;;;;;;;;;;;;2064954;28;19963;-82
2022/07/06 02:58:10;;;;;;;;;;;;;;;;;;2065354;28;20069;-82
2022/07/06 02:59:11;;;;;;;;;;;;;;;;;;2066026;28;20213;-84
2022/07/06 03:00:11;;;;;;;;;;;;;;;;;;2065610;28;19914;-83
2022/07/06 03:01:11;;;;;;;;;;;;;;;;;;2065717;28;19925;-83
2022/07/06 03:02:12;;;;;;;;;;;;;;;;;;2065604;28;19995;-84
2022/07/06 03:03:12;;;;;;;;;;;;;;;;;;2065318;28;19997;-84
2022/07/06 03:04:12;;;;;;;;;;;;;;;;;;2065520;28;19992;-85
2022/07/06 03:05:15;;;;;;;;;;;;;;;;;;2073074;28;20333;-84
2022/07/06 03:06:17;;;;;;;;;;;;;;;;;;2072994;28;19921;-84
2022/07/06 03:07:18;;;;;;;;;;;;;;;;;;2064934;28;20365;-83
2022/07/06 03:08:18;;;;;;;;;;;;;;;;;;2065113;28;19925;-83
2022/07/06 03:09:18;;;;;;;;;;;;;;;;;;2065019;28;19995;-83
2022/07/06 03:10:19;;;;;;;;;;;;;;;;;;2064648;28;19949;-83
2022/07/06 03:11:19;;;;;;;;;;;;;;;;;;2064913;28;20032;-82
2022/07/06 03:12:22;;;;;;;;;;;;;;;;;;2064585;28;19914;-83
2022/07/06 03:13:24;;;;;;;;;;;;;;;;;;2064995;28;19921;-84
2022/07/06 03:14:25;;;;;;;;;;;;;;;;;;2064825;28;19930;-84
2022/07/06 03:15:28;;;;;;;;;;;;;;;;;;2064559;28;20355;-81
2022/07/06 03:16:28;;;;;;;;;;;;;;;;;;2065316;28;19917;-83
2022/07/06 03:17:31;;;;;;;;;;;;;;;;;;2065683;28;19913;-83
2022/07/06 03:18:31;;;;;;;;;;;;;;;;;;2065982;28;19914;-83
2022/07/06 03:19:31;;;;;;;;;;;;;;;;;;2065674;28;19914;-84
2022/07/06 03:20:32;;;;;;;;;;;;;;;;;;2065196;28;20349;-83
2022/07/06 03:21:32;;;;;;;;;;;;;;;;;;2065339;28;19917;-83
2022/07/06 03:22:32;;;;;;;;;;;;;;;;;;2064936;28;19914;-83
2022/07/06 03:23:32;;;;;;;;;;;;;;;;;;2064709;28;20406;-83
2022/07/06 03:24:33;;;;;;;;;;;;;;;;;;2064882;28;20258;-84
2022/07/06 03:25:33;;;;;;;;;;;;;;;;;;2065601;28;19918;-83
2022/07/06 03:26:33;;;;;;;;;;;;;;;;;;2072619;28;19913;-83
2022/07/06 03:27:35;;;;;;;;;;;;;;;;;;2073104;28;20452;-83
2022/07/06 03:28:35;;;;;;;;;;;;;;;;;;2065393;28;19921;-83
2022/07/06 03:29:36;;;;;;;;;;;;;;;;;;2065407;28;19928;-83
2022/07/06 03:30:36;;;;;;;;;;;;;;;;;;2065248;28;20000;-83
2022/07/06 03:31:36;;;;;;;;;;;;;;;;;;2065179;28;19918;-84
2022/07/06 03:32:36;;;;;;;;;;;;;;;;;;2065410;28;20305;-83
2022/07/06 03:33:37;;;;;;;;;;;;;;;;;;2065021;28;20263;-82
2022/07/06 03:34:37;;;;;;;;;;;;;;;;;;2065060;28;19918;-83
2022/07/06 03:35:37;;;;;;;;;;;;;;;;;;2064801;28;20615;-82
2022/07/06 03:36:38;;;;;;;;;;;;;;;;;;2064734;28;19914;-82
2022/07/06 03:37:41;;;;;;;;;;;;;;;;;;2065577;28;19914;-84
2022/07/06 03:38:41;;;;;;;;;;;;;;;;;;2065467;28;20366;-83
2022/07/06 03:39:41;;;;;;;;;;;;;;;;;;2065514;28;19914;-82
2022/07/06 03:40:41;;;;;;;;;;;;;;;;;;2065492;28;19914;-83
2022/07/06 03:41:44;;;;;;;;;;;;;;;;;;2065577;28;20390;-83
2022/07/06 03:42:44;;;;;;;;;;;;;;;;;;2065715;28;19914;-82
2022/07/06 03:43:44;;;;;;;;;;;;;;;;;;2066027;28;20353;-82
2022/07/06 03:44:45;;;;;;;;;;;;;;;;;;2065453;28;19914;-83
2022/07/06 03:45:45;;;;;;;;;;;;;;;;;;2065114;28;19914;-83
2022/07/06 03:46:45;;;;;;;;;;;;;;;;;;2064838;28;20486;-81
2022/07/06 03:47:46;;;;;;;;;;;;;;;;;;2067471;28;20281;-82
2022/07/06 03:48:46;;;;;;;;;;;;;;;;;;2070343;28;19924;-82
2022/07/06 03:49:46;;;;;;;;;;;;;;;;;;2073329;28;19909;-83
2022/07/06 03:50:46;;;;;;;;;;;;;;;;;;2073540;28;20016;-82
2022/07/06 03:51:47;;;;;;;;;;;;;;;;;;2075022;28;19918;-82
2022/07/06 03:52:47;;;;;;;;;;;;;;;;;;2074260;28;19929;-82
2022/07/06 03:53:49;;;;;;;;;;;;;;;;;;2069517;28;20345;-83
2022/07/06 03:54:50;;;;;;;;;;;;;;;;;;2068507;28;19945;-83
2022/07/06 03:57:11;;;;;;;;;;;;;;;;;;2067642;28;19930;-83
2022/07/06 03:58:11;;;;;;;;;;;;;;;;;;2068716;28;19913;-84
2022/07/06 03:59:13;;;;;;;;;;;;;;;;;;2068493;28;19949;-84
2022/07/06 04:00:14;;;;;;;;;;;;;;;;;;2066680;28;19914;-84
2022/07/06 04:01:14;;;;;;;;;;;;;;;;;;2066797;28;20005;-85
2022/07/06 04:02:14;;;;;;;;;;;;;;;;;;2067307;28;20012;-84
2022/07/06 04:03:14;;;;;;;;;;;;;;;;;;2067119;28;20001;-84
2022/07/06 04:04:15;;;;;;;;;;;;;;;;;;2075402;28;19920;-83
2022/07/06 04:05:17;;;;;;;;;;;;;;;;;;2066608;28;20387;-83
2022/07/06 04:06:18;;;;;;;;;;;;;;;;;;2066516;28;19987;-83
2022/07/06 04:07:18;;;;;;;;;;;;;;;;;;2066439;28;19929;-83
2022/07/06 04:08:21;;;;;;;;;;;;;;;;;;2066812;28;19945;-83
2022/07/06 04:09:21;;;;;;;;;;;;;;;;;;2066851;28;19925;-84
2022/07/06 04:10:21;;;;;;;;;;;;;;;;;;2066354;28;19914;-83
2022/07/06 04:11:22;;;;;;;;;;;;;;;;;;2066493;28;19913;-84
2022/07/06 04:12:22;;;;;;;;;;;;;;;;;;2066116;28;19913;-84
2022/07/06 04:13:23;;;;;;;;;;;;;;;;;;2066257;28;19914;-83
2022/07/06 04:14:24;;;;;;;;;;;;;;;;;;2067287;28;19922;-83
2022/07/06 04:15:27;;;;;;;;;;;;;;;;;;2068063;28;19945;-83
2022/07/06 04:16:27;;;;;;;;;;;;;;;;;;2067902;28;20326;-83
2022/07/06 04:18:00;;;;;;;;;;;;;;;;;;2069340;28;19925;-84
2022/07/06 04:18:54;;;;;;;;;;;;;;;;;;2068564;28;19925;-84
2022/07/06 04:19:54;;;;;;;;;;;;;;;;;;2069906;28;19952;-83
2022/07/06 04:20:54;;;;;;;;;;;;;;;;;;2068758;28;20004;-83
2022/07/06 04:21:55;;;;;;;;;;;;;;;;;;2066838;28;19960;-83
2022/07/06 04:22:55;;;;;;;;;;;;;;;;;;2066907;28;20480;-82
2022/07/06 04:24:02;;;;;;;;;;;;;;;;;;2067088;28;19921;-82
2022/07/06 04:25:03;;;;;;;;;;;;;;;;;;2067131;28;19925;-82
2022/07/06 04:26:03;;;;;;;;;;;;;;;;;;2066263;28;19914;-83
2022/07/06 04:27:03;;;;;;;;;;;;;;;;;;2066354;28;19913;-84
2022/07/06 04:28:04;;;;;;;;;;;;;;;;;;2066998;28;19914;-84
2022/07/06 04:29:04;;;;;;;;;;;;;;;;;;2066677;28;19913;-83
2022/07/06 04:30:05;;;;;;;;;;;;;;;;;;2074184;28;20379;-83
2022/07/06 04:31:06;;;;;;;;;;;;;;;;;;2066417;28;20357;-83
2022/07/06 04:32:06;;;;;;;;;;;;;;;;;;2066440;28;20005;-84
2022/07/06 04:33:06;;;;;;;;;;;;;;;;;;2066657;28;20425;-84
2022/07/06 04:34:07;;;;;;;;;;;;;;;;;;2066512;28;19926;-83
2022/07/06 04:35:07;;;;;;;;;;;;;;;;;;2066437;28;20347;-82
2022/07/06 04:36:08;;;;;;;;;;;;;;;;;;2066019;28;19992;-82
2022/07/06 04:37:08;;;;;;;;;;;;;;;;;;2066076;28;20440;-82
2022/07/06 04:38:08;;;;;;;;;;;;;;;;;;2070979;28;20605;-84
2022/07/06 04:39:11;;;;;;;;;;;;;;;;;;2065604;28;20008;-84
2022/07/06 04:40:11;;;;;;;;;;;;;;;;;;2065588;28;19921;-84
2022/07/06 04:41:11;;;;;;;;;;;;;;;;;;2074272;28;20004;-84
2022/07/06 04:42:12;;;;;;;;;;;;;;;;;;2073977;28;20449;-84
2022/07/06 04:43:14;;;;;;;;;;;;;;;;;;2074916;28;19957;-84
2022/07/06 04:44:15;;;;;;;;;;;;;;;;;;2075902;28;19914;-83
2022/07/06 04:45:17;;;;;;;;;;;;;;;;;;2076850;28;19913;-84
2022/07/06 04:46:19;;;;;;;;;;;;;;;;;;2077852;28;19913;-85
2022/07/06 04:47:19;;;;;;;;;;;;;;;;;;2078848;28;19975;-85
2022/07/06 04:48:19;;;;;;;;;;;;;;;;;;2078952;28;19924;-84
2022/07/06 04:49:20;;;;;;;;;;;;;;;;;;2070898;28;19924;-85
2022/07/06 04:50:20;;;;;;;;;;;;;;;;;;2069996;28;19957;-84
2022/07/06 04:51:23;;;;;;;;;;;;;;;;;;2074564;28;20377;-84
2022/07/06 04:52:23;;;;;;;;;;;;;;;;;;2074229;28;19914;-84
2022/07/06 04:53:31;;;;;;;;;;;;;;;;;;2066574;28;20470;-83
2022/07/06 04:54:31;;;;;;;;;;;;;;;;;;2072499;28;20259;-84
2022/07/06 04:55:31;;;;;;;;;;;;;;;;;;2071537;28;19996;-84
2022/07/06 04:56:32;;;;;;;;;;;;;;;;;;2073511;28;20377;-84
2022/07/06 04:57:32;;;;;;;;;;;;;;;;;;2072974;28;19921;-85
2022/07/06 04:58:32;;;;;;;;;;;;;;;;;;2073192;28;19972;-85
2022/07/06 04:59:33;;;;;;;;;;;;;;;;;;2074844;28;19921;-85
2022/07/06 05:00:33;;;;;;;;;;;;;;;;;;2074844;28;20298;-85
2022/07/06 05:01:38;;;;;;;;;;;;;;;;;;2073725;28;19917;-84
2022/07/06 05:02:43;;;;;;;;;;;;;;;;;;2073571;28;20067;-84
2022/07/06 05:03:43;;;;;;;;;;;;;;;;;;2073896;28;19960;-82
2022/07/06 05:04:43;;;;;;;;;;;;;;;;;;2074314;28;19925;-84
2022/07/06 05:05:47;;;;;;;;;;;;;;;;;;2080932;28;19924;-83
2022/07/06 05:06:47;;;;;;;;;;;;;;;;;;2072505;28;19914;-84
2022/07/06 05:07:53;;;;;;;;;;;;;;;;;;2073896;28;19913;-83
2022/07/06 05:08:53;;;;;;;;;;;;;;;;;;2073341;28;20591;-82
2022/07/06 05:09:53;;;;;;;;;;;;;;;;;;2065713;28;19913;-84
2022/07/06 05:10:54;;;;;;;;;;;;;;;;;;2078427;28;20398;-85
2022/07/06 05:11:54;;;;;;;;;;;;;;;;;;2071797;28;20017;-84
2022/07/06 05:12:55;;;;;;;;;;;;;;;;;;2072482;28;19917;-84
2022/07/06 05:13:58;;;;;;;;;;;;;;;;;;2071869;28;19952;-83
2022/07/06 05:15:01;;;;;;;;;;;;;;;;;;2071626;28;19914;-83
2022/07/06 05:16:01;;;;;;;;;;;;;;;;;;2079364;28;19971;-84
2022/07/06 05:17:02;;;;;;;;;;;;;;;;;;2081547;28;19974;-83
2022/07/06 05:18:02;;;;;;;;;;;;;;;;;;2073544;28;20390;-83
2022/07/06 05:19:02;;;;;;;;;;;;;;;;;;2073618;28;19993;-84
2022/07/06 05:20:05;;;;;;;;;;;;;;;;;;2073681;28;19913;-83
2022/07/06 05:21:06;;;;;;;;;;;;;;;;;;2073667;28;19921;-84
2022/07/06 05:22:06;;;;;;;;;;;;;;;;;;2073741;28;19917;-83
2022/07/06 05:23:06;;;;;;;;;;;;;;;;;;2073969;28;19995;-87
2022/07/06 05:24:07;;;;;;;;;;;;;;;;;;2073984;28;19928;-85
2022/07/06 05:25:07;;;;;;;;;;;;;;;;;;2073239;28;20401;-83
2022/07/06 05:26:07;;;;;;;;;;;;;;;;;;2081024;28;19944;-85
2022/07/06 05:27:08;;;;;;;;;;;;;;;;;;2081282;28;20365;-84
2022/07/06 05:28:08;;;;;;;;;;;;;;;;;;2073871;28;19913;-85
2022/07/06 05:29:08;;;;;;;;;;;;;;;;;;2073762;28;19921;-85
2022/07/06 05:30:11;;;;;;;;;;;;;;;;;;2073255;28;20059;-87
2022/07/06 05:31:14;;;;;;;;;;;;;;;;;;2073438;28;19918;-84
2022/07/06 05:32:14;;;;;;;;;;;;;;;;;;2073029;28;19924;-86
2022/07/06 05:33:15;;;;;;;;;;;;;;;;;;2072888;28;19913;-84
2022/07/06 05:34:15;;;;;;;;;;;;;;;;;;2073337;28;19925;-84
2022/07/06 05:35:16;;;;;;;;;;;;;;;;;;2073665;28;20294;-84
2022/07/06 05:36:19;;;;;;;;;;;;;;;;;;2073159;28;19991;-86
2022/07/06 05:37:19;;;;;;;;;;;;;;;;;;2065187;28;20012;-84
2022/07/06 05:38:22;;;;;;;;;;;;;;;;;;2073118;28;20248;-83
2022/07/06 05:39:23;;;;;;;;;;;;;;;;;;2073568;28;19922;-84
2022/07/06 05:40:23;;;;;;;;;;;;;;;;;;2081528;28;19983;-90
2022/07/06 05:41:23;;;;;;;;;;;;;;;;;;2081571;28;19913;-85
2022/07/06 05:42:23;;;;;;;;;;;;;;;;;;2074078;28;19917;-85
2022/07/06 05:43:24;;;;;;;;;;;;;;;;;;2073099;28;20339;-84
2022/07/06 05:44:24;;;;;;;;;;;;;;;;;;2073833;28;19914;-88
2022/07/06 05:45:30;;;;;;;;;;;;;;;;;;2081634;28;19913;-86
2022/07/06 05:46:30;;;;;;;;;;;;;;;;;;2080699;28;19979;-88
2022/07/06 05:50:14;;;;;;;;;;;;;;;;;;2073947;28;19914;-84
2022/07/06 05:51:22;;;;;;;;;;;;;;;;;;2073668;28;20218;-84
2022/07/06 05:52:22;;;;;;;;;;;;;;;;;;2073918;28;19913;-84
2022/07/06 05:53:22;;;;;;;;;;;;;;;;;;2073556;28;19914;-88
2022/07/06 05:54:23;;;;;;;;;;;;;;;;;;2073526;28;20467;-85
2022/07/06 05:55:26;;;;;;;;;;;;;;;;;;2073535;28;19913;-84
2022/07/06 05:56:26;;;;;;;;;;;;;;;;;;2073718;28;20362;-83
2022/07/06 05:57:27;;;;;;;;;;;;;;;;;;2073375;28;19922;-86
2022/07/06 05:58:27;;;;;;;;;;;;;;;;;;2073140;28;19948;-86
2022/07/06 05:59:27;;;;;;;;;;;;;;;;;;2073077;28;19984;-84
2022/07/06 06:00:28;;;;;;;;;;;;;;;;;;2073105;28;19924;-86
2022/07/06 06:01:28;;;;;;;;;;;;;;;;;;2073631;28;19971;-88
2022/07/06 06:02:38;;;;;;;;;;;;;;;;;;2073565;28;19924;-85
2022/07/06 06:03:39;;;;;;;;;;;;;;;;;;2081419;28;19913;-85
2022/07/06 06:04:39;;;;;;;;;;;;;;;;;;2081728;28;19941;-82
2022/07/06 06:05:41;;;;;;;;;;;;;;;;;;2073938;28;20321;-85
2022/07/06 06:06:44;;;;;;;;;;;;;;;;;;2073920;28;19955;-84
2022/07/06 06:07:50;;;;;;;;;;;;;;;;;;2073677;28;20116;-85
2022/07/06 06:08:53;;;;;;;;;;;;;;;;;;2076844;28;19921;-86
2022/07/06 06:09:54;;;;;;;;;;;;;;;;;;2073403;28;20003;-85
2022/07/06 06:10:54;;;;;;;;;;;;;;;;;;2073023;28;19975;-88
2022/07/06 06:11:54;;;;;;;;;;;;;;;;;;2081300;28;20396;-86
2022/07/06 06:12:55;;;;;;;;;;;;;;;;;;2073929;28;19979;-85
2022/07/06 06:14:03;;;;;;;;;;;;;;;;;;2072910;28;20072;-86
2022/07/06 06:15:11;;;;;;;;;;;;;;;;;;2076874;28;19979;-86
2022/07/06 06:16:11;;;;;;;;;;;;;;;;;;2076541;28;19920;-87
2022/07/06 06:17:12;;;;;;;;;;;;;;;;;;2073578;28;19924;-86
2022/07/06 06:18:12;;;;;;;;;;;;;;;;;;2073399;28;19913;-85
2022/07/06 06:19:15;;;;;;;;;;;;;;;;;;2081151;28;19913;-85
2022/07/06 06:20:15;;;;;;;;;;;;;;;;;;2081348;28;19924;-84
2022/07/06 06:21:18;;;;;;;;;;;;;;;;;;2073728;28;19945;-86
2022/07/06 06:22:18;;;;;;;;;;;;;;;;;;2081406;28;19995;-86
2022/07/06 06:23:18;;;;;;;;;;;;;;;;;;2081270;28;19913;-86
2022/07/06 06:24:23;;;;;;;;;;;;;;;;;;2073204;28;19925;-91
2022/07/06 06:25:28;;;;;;;;;;;;;;;;;;2073697;28;19927;-88
2022/07/06 06:26:28;;;;;;;;;;;;;;;;;;2073525;28;20193;-84
2022/07/06 06:27:28;;;;;;;;;;;;;;;;;;2073870;28;20008;-86
2022/07/06 06:28:28;;;;;;;;;;;;;;;;;;2073424;28;20358;-87
2022/07/06 06:29:29;;;;;;;;;;;;;;;;;;2073607;28;19936;-85
2022/07/06 06:30:29;;;;;;;;;;;;;;;;;;2081248;28;19960;-86
2022/07/06 06:31:29;;;;;;;;;;;;;;;;;;2080533;28;19913;-83
2022/07/06 06:32:32;;;;;;;;;;;;;;;;;;2073042;28;19913;-85
2022/07/06 06:33:32;;;;;;;;;;;;;;;;;;2073944;28;20000;-85
2022/07/06 06:34:33;;;;;;;;;;;;;;;;;;2073542;28;19940;-87
2022/07/06 06:35:33;;;;;;;;;;;;;;;;;;2073585;28;20015;-86
2022/07/06 06:36:33;;;;;;;;;;;;;;;;;;2081340;28;19925;-84
2022/07/06 06:37:39;;;;;;;;;;;;;;;;;;2081414;28;19963;-85
2022/07/06 06:38:42;;;;;;;;;;;;;;;;;;2072941;28;19924;-85
2022/07/06 06:39:42;;;;;;;;;;;;;;;;;;2073340;28;20190;-86
2022/07/06 06:40:42;;;;;;;;;;;;;;;;;;2081017;28;19917;-88
2022/07/06 06:41:43;;;;;;;;;;;;;;;;;;2073581;28;19913;-88
2022/07/06 06:42:43;;;;;;;;;;;;;;;;;;2073446;28;20027;-85
2022/07/06 06:43:45;;;;;;;;;;;;;;;;;;2073678;28;19913;-86
2022/07/06 06:44:46;;;;;;;;;;;;;;;;;;2073748;28;19924;-83
2022/07/06 06:45:46;;;;;;;;;;;;;;;;;;2073511;28;20283;-86
2022/07/06 06:46:46;;;;;;;;;;;;;;;;;;2080958;28;19921;-85
2022/07/06 06:47:47;;;;;;;;;;;;;;;;;;2081294;28;19921;-86
2022/07/06 06:48:47;;;;;;;;;;;;;;;;;;2073074;28;19917;-86
2022/07/06 06:49:47;;;;;;;;;;;;;;;;;;2073074;28;19920;-83
2022/07/06 06:50:47;;;;;;;;;;;;;;;;;;2073596;28;20361;-78
2022/07/06 06:51:48;;;;;;;;;;;;;;;;;;2080927;28;19993;-81
2022/07/06 06:52:50;;;;;;;;;;;;;;;;;;2081056;28;20026;-84
2022/07/06 06:53:51;;;;;;;;;;;;;;;;;;2072656;28;19921;-86
2022/07/06 06:54:51;;;;;;;;;;;;;;;;;;2072955;28;20004;-91
2022/07/06 06:55:51;;;;;;;;;;;;;;;;;;2073379;28;19928;-87
2022/07/06 06:56:52;;;;;;;;;;;;;;;;;;2073450;28;19917;-87
2022/07/06 06:57:52;;;;;;;;;;;;;;;;;;2081262;28;19919;-85
2022/07/06 06:58:52;;;;;;;;;;;;;;;;;;2081939;28;19991;-85
2022/07/06 06:59:53;;;;;;;;;;;;;;;;;;2074261;28;19959;-84
2022/07/06 07:00:53;;;;;;;;;;;;;;;;;;2073874;28;19913;-87
2022/07/06 07:01:53;;;;;;;;;;;;;;;;;;2081349;28;19924;-85